Aérodrome :
LOGIN :

S'inscrire | Disclaimer

   EN    FR    IT 

 










Légende :    VFR   VFR Marginal   IFR   IFR Intensif   IFR Très Intensif
Visi : 
Plafond : 
>= 8 km
>= 3000ft
5 à 8 km
1000 à 3000 ft
1500m à 5 km
500 à 1000 ft
800 à 1500m
200 à 500 ft
< 800m
< 200 ft
Symboles :   Orages  Brouillard  Fortes neiges  Fortes précipitations  Vent > 20 kt
SIGMETs :   Divers  Orages  Givrage  Turbulence  Onde Orograph.  Cendres Volcan.







- Altitude de l'aérodrome : 82 ft
- Code IATA : AAR


EKAH - Aarhus Tirstrup

DERNIER METAR :
  • 272250Z AUTO 10012KT 070V130 9999NDV -SHRA BKN036/// BKN190/// 18/11 Q1025

METARs EXPIRÉS :
  • 272220Z AUTO 11009KT 080V140 9999NDV BKN036/// BKN150/// 19/13 Q1025
  • 272150Z AUTO 10005KT 070V130 9999NDV BKN034/// BKN083/// 18/16 Q1025
  • 272120Z AUTO 09005KT 9999NDV BKN031/// BKN160/// 18/16 Q1025
  • 272050Z AUTO 09004KT 9999NDV BKN030/// 18/16 Q1025
  • 272020Z AUTO 09005KT 9999NDV FEW028/// BKN044/// 18/16 Q1025

TAF TAF EKAH
Valide du 27 à 18h jusqu'au 28 à 18h UTC


271711Z 2718/2818 09012KT 9999 SCT040
TEMPO 2718/2806 BKN012
TEMPO 2806/2818 SHRA BKN030CB
Pas de NOTAMs connus pour ce terrain.



MET'MAP, la Météo Aéronautique d'un coup d'oeil ! - Copyright ORBIFLY Décembre 2007 - Disclaimer

ORBIFLY MET'MAP TEAM :

Programmation & Développement : Alexandra Zaïnal
Conception & Développement : Baudouin d'Aumeries
Co-Programmation & Développement : Marc-Olivier Méhu
Soutien technique & logistique : Manuel Goepfert

Contact : metmap@orbifly.com




SOURCES & CREDITS :

   NOAA